createdAt,value
2022-10-02T00:02:27.080Z,97018.41
2022-10-02T00:04:58.644Z,97010.09
2022-10-02T00:07:32.246Z,96995.97
2022-10-02T00:10:04.172Z,96971.47
2022-10-02T00:12:38.083Z,96937.72
2022-10-02T00:15:14.937Z,96924.41
2022-10-02T00:17:48.003Z,96914.38
2022-10-02T00:20:18.365Z,96893.38
2022-10-02T00:22:56.156Z,96878.34
2022-10-02T00:25:29.859Z,96860.59
2022-10-02T00:28:13.868Z,96843.81
2022-10-02T00:30:56.585Z,96837.97
2022-10-02T00:33:33.699Z,96828.75
2022-10-02T00:36:11.904Z,96830.63
2022-10-02T00:38:48.769Z,96828.06
2022-10-02T00:41:55.866Z,96838.91
2022-10-02T00:44:42.467Z,96859.91
2022-10-02T00:47:20.836Z,96875.78
2022-10-02T00:50:18.400Z,96887.56
2022-10-02T00:53:01.813Z,96896.75
2022-10-02T00:55:45.016Z,96912.75
2022-10-02T00:58:27.433Z,96913.69
2022-10-02T01:01:04.811Z,96908.56
2022-10-02T01:03:38.884Z,96923.03
2022-10-02T01:06:08.292Z,96919.53
2022-10-02T01:08:36.452Z,96926.28
2022-10-02T01:11:06.500Z,96929.53
2022-10-02T01:13:35.196Z,96941.34
2022-10-02T01:16:05.747Z,96946.47
2022-10-02T01:18:33.694Z,96951.50
2022-10-02T01:21:09.120Z,96950.56
2022-10-02T01:23:43.635Z,96950.44
2022-10-02T01:26:12.883Z,96967.38
2022-10-02T01:28:41.093Z,96973.22
2022-10-02T01:31:14.506Z,96984.16
2022-10-02T01:33:44.367Z,96992.59
2022-10-02T01:40:30.964Z,97003.56
2022-10-02T01:43:04.013Z,96999.25
2022-10-02T01:45:48.834Z,97011.97
2022-10-02T01:48:23.748Z,97008.47
2022-10-02T01:51:05.001Z,97007.66
2022-10-02T01:53:40.935Z,97009.41
2022-10-02T01:56:16.809Z,97008.56
2022-10-02T01:58:55.289Z,97003.56
2022-10-02T02:01:36.589Z,97001.13
2022-10-02T02:04:13.177Z,96991.75
2022-10-02T02:06:48.402Z,96985.91
2022-10-02T02:09:20.952Z,96977.41
2022-10-02T02:11:54.594Z,96983.47
2022-10-02T02:14:27.167Z,96978.34
2022-10-02T02:16:57.266Z,96986.75
2022-10-02T02:19:29.037Z,97000.31
2022-10-02T02:22:05.226Z,97028.88
2022-10-02T02:24:37.666Z,97040.44
2022-10-02T02:27:09.518Z,97050.50
2022-10-02T02:29:41.371Z,97074.09
2022-10-02T02:32:19.954Z,97084.97
2022-10-02T02:34:54.720Z,97095.94
2022-10-02T02:37:28.987Z,97117.13
2022-10-02T02:40:00.733Z,97116.19
2022-10-02T02:42:32.391Z,97114.56
2022-10-02T02:45:07.303Z,97111.13
2022-10-02T02:47:40.535Z,97105.19
2022-10-02T02:50:15.746Z,97113.63
2022-10-02T02:52:49.754Z,97113.63
2022-10-02T02:55:21.715Z,97122.03
2022-10-02T02:57:58.775Z,97129.59
2022-10-02T03:00:28.031Z,97139.75
2022-10-02T03:02:55.831Z,97130.41
2022-10-02T03:05:25.365Z,97127.97
2022-10-02T03:07:55.967Z,97126.22
2022-10-02T03:10:34.989Z,97120.38
2022-10-02T03:13:17.766Z,97109.50
2022-10-02T03:16:01.726Z,97097.69
2022-10-02T03:18:58.105Z,97089.16
2022-10-02T03:21:35.404Z,97095.03
2022-10-02T03:24:10.164Z,97097.59
2022-10-02T03:26:42.088Z,97105.31
2022-10-02T03:29:14.705Z,97105.19
2022-10-02T03:31:45.015Z,97112.88
2022-10-02T03:34:13.758Z,97102.72
2022-10-02T03:36:42.095Z,97111.25
2022-10-02T03:39:24.667Z,97104.38
2022-10-02T03:41:54.696Z,97104.38
2022-10-02T03:44:22.515Z,97106.00
2022-10-02T03:46:51.891Z,97121.19
2022-10-02T03:49:19.825Z,97136.38
2022-10-02T03:51:47.693Z,97153.09
2022-10-02T03:54:18.613Z,97189.44
2022-10-02T03:56:54.669Z,97228.03
2022-10-02T03:59:40.125Z,97258.31
2022-10-02T04:02:17.779Z,97282.72
2022-10-02T04:04:51.264Z,97291.97
2022-10-02T04:07:23.912Z,97305.53
2022-10-02T04:09:55.459Z,97304.59
2022-10-02T04:12:30.173Z,97307.06
2022-10-02T04:15:04.306Z,97320.53
2022-10-02T04:17:44.047Z,97328.13
2022-10-02T04:20:19.431Z,97335.72
2022-10-02T04:22:53.875Z,97325.53
2022-10-02T04:25:28.136Z,97322.16
2022-10-02T04:28:00.453Z,97335.00
2022-10-02T04:30:33.905Z,97322.97
2022-10-02T04:33:12.654Z,97334.78
2022-10-02T04:35:48.067Z,97339.91
2022-10-02T04:38:39.114Z,97355.13
2022-10-02T04:41:28.421Z,97368.56
2022-10-02T04:44:08.497Z,97368.47
2022-10-02T04:46:58.633Z,97363.31
2022-10-02T04:49:48.879Z,97375.28
2022-10-02T04:52:39.799Z,97367.56
2022-10-02T04:55:22.681Z,97375.16
2022-10-02T04:57:58.769Z,97386.97
2022-10-02T05:00:37.332Z,97412.34
2022-10-02T05:03:26.953Z,97423.13
2022-10-02T05:06:16.103Z,97434.13
2022-10-02T05:08:58.445Z,97443.47
2022-10-02T05:11:53.202Z,97455.19
2022-10-02T05:14:59.053Z,97460.94
2022-10-02T05:17:38.883Z,97475.31
2022-10-02T05:20:21.647Z,97491.50
2022-10-02T05:23:22.487Z,97485.50
2022-10-02T05:26:12.092Z,97488.91
2022-10-02T05:29:06.755Z,97484.69
2022-10-02T05:31:42.293Z,97490.66
2022-10-02T05:34:33.505Z,97479.53
2022-10-02T05:37:17.028Z,97476.13
2022-10-02T05:39:56.981Z,97490.44
2022-10-02T05:42:34.786Z,97509.84
2022-10-02T05:45:05.991Z,97521.69
2022-10-02T05:47:39.439Z,97530.00
2022-10-02T05:50:16.506Z,97541.84
2022-10-02T05:52:55.023Z,97554.50
2022-10-02T05:55:29.762Z,97570.56
2022-10-02T05:58:04.268Z,97585.75
2022-10-02T06:00:38.630Z,97594.06
2022-10-02T06:03:16.615Z,97609.31
2022-10-02T06:05:55.358Z,97617.63
2022-10-02T06:08:31.724Z,97641.31
2022-10-02T06:11:08.009Z,97653.94
2022-10-02T06:13:41.649Z,97665.69
2022-10-02T06:16:18.584Z,97676.69
2022-10-02T06:18:52.179Z,97691.94
2022-10-02T06:21:29.233Z,97702.94
2022-10-02T06:24:01.401Z,97716.34
2022-10-02T06:26:41.128Z,97727.34
2022-10-02T06:29:18.647Z,97738.22
2022-10-02T06:31:52.153Z,97746.69
2022-10-02T06:34:21.130Z,97749.16
2022-10-02T06:37:01.509Z,97753.50
2022-10-02T06:39:50.724Z,97761.00
2022-10-02T06:42:34.715Z,97778.00
2022-10-02T06:45:11.196Z,97786.44
2022-10-02T06:47:57.387Z,97795.69
2022-10-02T06:50:38.912Z,97797.34
2022-10-02T06:53:22.872Z,97801.56
2022-10-02T06:56:01.545Z,97804.03
2022-10-02T06:58:48.179Z,97816.59
2022-10-02T07:01:26.228Z,97825.97
2022-10-02T07:04:13.899Z,97848.88
2022-10-02T07:06:55.080Z,97858.94
2022-10-02T07:09:48.234Z,97863.19
2022-10-02T07:12:29.026Z,97875.84
2022-10-02T07:15:19.340Z,97888.53
2022-10-02T07:17:58.613Z,97896.06
2022-10-02T07:20:35.019Z,97917.19
2022-10-02T07:23:13.968Z,97925.75
2022-10-02T07:26:02.774Z,97932.31
2022-10-02T07:28:38.150Z,97944.28
2022-10-02T07:31:18.766Z,97951.00
2022-10-02T07:34:00.026Z,97962.84
2022-10-02T07:36:42.781Z,97982.34
2022-10-02T07:39:23.988Z,97993.94
2022-10-02T07:42:09.905Z,98020.38
2022-10-02T07:44:58.668Z,98040.59
2022-10-02T07:47:45.890Z,98047.16
2022-10-02T07:50:17.761Z,98071.81
2022-10-02T07:52:56.462Z,98088.72
2022-10-02T07:55:25.895Z,98112.47
2022-10-02T07:58:02.281Z,98119.06
2022-10-02T08:00:32.947Z,98129.28
2022-10-02T08:03:03.487Z,98154.75
2022-10-02T08:05:34.931Z,98173.34
2022-10-02T08:08:10.083Z,98189.34
2022-10-02T08:10:41.598Z,98211.34
2022-10-02T08:13:20.406Z,98232.47
2022-10-02T08:15:52.291Z,98248.59
2022-10-02T08:18:35.627Z,98267.16
2022-10-02T08:21:14.811Z,98294.31
2022-10-02T08:23:47.287Z,98322.31
2022-10-02T08:26:20.319Z,98337.41
2022-10-02T08:28:54.154Z,98357.72
2022-10-02T08:31:24.426Z,98377.28
2022-10-02T08:33:53.943Z,98388.25
2022-10-02T08:36:54.619Z,98421.19
2022-10-02T08:39:42.252Z,98457.78
2022-10-02T08:42:51.483Z,98471.41
2022-10-02T08:45:56.935Z,98479.81
2022-10-02T08:49:07.265Z,98517.16
2022-10-02T08:52:04.101Z,98548.50
2022-10-02T08:54:54.020Z,98546.84
2022-10-02T08:58:02.881Z,98550.13
2022-10-02T09:00:46.482Z,98558.72
2022-10-02T09:03:57.973Z,98558.59
2022-10-02T09:07:27.396Z,98577.34
2022-10-02T09:10:48.280Z,98585.00
2022-10-02T09:13:55.520Z,98579.94
2022-10-02T09:16:30.546Z,98571.44
2022-10-02T09:19:03.086Z,98565.44
2022-10-02T09:21:55.994Z,98557.78
2022-10-02T09:24:58.004Z,98548.38
2022-10-02T09:27:56.511Z,98581.59
2022-10-02T09:31:02.773Z,98608.69
2022-10-02T09:34:24.498Z,98646.03
2022-10-02T09:37:12.388Z,98674.06
2022-10-02T09:40:08.857Z,98693.53
2022-10-02T09:43:27.040Z,98722.31
2022-10-02T09:46:15.059Z,98772.41
2022-10-02T09:49:21.650Z,98795.31
2022-10-02T09:52:20.264Z,98838.78
2022-10-02T09:55:24.520Z,98821.72
2022-10-02T09:58:32.977Z,98827.72
2022-10-02T10:01:40.935Z,98837.97
2022-10-02T10:05:05.173Z,98871.84
2022-10-02T10:08:06.990Z,98889.78
2022-10-02T10:11:03.837Z,98911.00
2022-10-02T10:14:00.131Z,98978.19
2022-10-02T10:17:09.095Z,99017.16
2022-10-02T10:20:16.848Z,99079.28
2022-10-02T10:23:09.741Z,99114.34
2022-10-02T10:25:51.845Z,99109.16
2022-10-02T10:29:01.371Z,99085.31
2022-10-02T10:32:12.286Z,99074.22
2022-10-02T10:35:21.376Z,99087.91
2022-10-02T10:38:17.401Z,99103.25
2022-10-02T10:41:05.662Z,99170.50
2022-10-02T10:44:36.676Z,99234.22
2022-10-02T10:47:24.255Z,99280.13
2022-10-02T10:50:15.271Z,99311.75
2022-10-02T10:53:10.359Z,99354.25
2022-10-02T10:56:00.172Z,99372.97
2022-10-02T10:58:47.803Z,99416.50
2022-10-02T11:01:19.823Z,99430.19
2022-10-02T11:04:28.848Z,99434.44
2022-10-02T11:07:15.731Z,99390.09
2022-10-02T11:10:17.851Z,99378.22
2022-10-02T11:13:11.015Z,99361.22
2022-10-02T11:16:06.424Z,99374.75
2022-10-02T11:18:54.069Z,99444.66
2022-10-02T11:21:41.656Z,99476.25
2022-10-02T11:24:36.401Z,99503.56
2022-10-02T11:27:17.094Z,99541.84
2022-10-02T11:30:11.051Z,99568.38
2022-10-02T11:33:04.964Z,99563.34
2022-10-02T11:35:53.248Z,99554.72
2022-10-02T11:38:45.679Z,99468.47
2022-10-02T11:41:31.023Z,99485.69
2022-10-02T11:44:22.203Z,99515.44
2022-10-02T11:47:19.581Z,99581.16
2022-10-02T11:50:23.563Z,99627.25
2022-10-02T11:53:08.565Z,99680.13
2022-10-02T11:55:51.338Z,99728.00
2022-10-02T11:58:23.469Z,99752.75
2022-10-02T12:01:09.270Z,99763.81
2022-10-02T12:03:52.453Z,99756.94
2022-10-02T12:06:33.730Z,99769.00
2022-10-02T12:09:11.497Z,99773.16
2022-10-02T12:11:48.842Z,99770.66
2022-10-02T12:14:32.579Z,99768.16
2022-10-02T12:17:16.462Z,99770.66
2022-10-02T12:20:16.478Z,99760.38
2022-10-02T12:23:09.354Z,99755.28
2022-10-02T12:25:58.280Z,99763.81
2022-10-02T12:28:38.346Z,99740.69
2022-10-02T12:31:17.539Z,99708.41
2022-10-02T12:33:56.663Z,99715.06
2022-10-02T12:36:40.986Z,99774.09
2022-10-02T12:39:22.220Z,99793.69
2022-10-02T12:42:12.606Z,99856.06
2022-10-02T12:45:02.738Z,99934.59
2022-10-02T12:48:00.687Z,99978.28
2022-10-02T12:50:47.379Z,99997.88
2022-10-02T12:54:04.919Z,100033.91
2022-10-02T12:56:51.433Z,100056.13
2022-10-02T12:59:29.041Z,100035.53
2022-10-02T13:02:56.042Z,99993.59
2022-10-02T13:06:01.853Z,99938.03
2022-10-02T13:08:43.027Z,99895.34
2022-10-02T13:11:25.736Z,99839.66
2022-10-02T13:14:12.115Z,99796.94
2022-10-02T13:17:09.807Z,99773.91
2022-10-02T13:19:53.035Z,99738.84
2022-10-02T13:22:26.092Z,99692.84
2022-10-02T13:25:19.816Z,99653.56
2022-10-02T13:27:55.536Z,99617.78
2022-10-02T13:30:25.004Z,99547.69
2022-10-02T13:33:13.288Z,99465.78
2022-10-02T13:36:11.974Z,99415.47
2022-10-02T13:39:05.151Z,99430.03
2022-10-02T13:41:52.456Z,99404.34
2022-10-02T13:44:35.769Z,99422.25
2022-10-02T13:47:33.084Z,99400.94
2022-10-02T13:50:17.487Z,99405.19
2022-10-02T13:52:59.676Z,99402.69
2022-10-02T13:55:30.337Z,99398.44
2022-10-02T13:58:34.966Z,99396.69
2022-10-02T14:01:16.307Z,99440.09
2022-10-02T14:04:07.748Z,99534.69
2022-10-02T14:06:43.988Z,99607.31
2022-10-02T14:09:45.521Z,99700.34
2022-10-02T14:12:28.724Z,99772.06
2022-10-02T14:15:31.788Z,99833.53
2022-10-02T14:18:14.792Z,99894.25
2022-10-02T14:20:50.354Z,99933.63
2022-10-02T14:23:43.454Z,99965.19
2022-10-02T14:26:22.430Z,99937.78
2022-10-02T14:29:09.184Z,99898.50
2022-10-02T14:32:03.838Z,99890.03
2022-10-02T14:35:15.854Z,99867.78
2022-10-02T14:38:18.189Z,99851.41
2022-10-02T14:40:53.052Z,99817.34
2022-10-02T14:43:45.595Z,99796.78
2022-10-02T14:46:22.166Z,99764.28
2022-10-02T14:49:12.642Z,99741.25
2022-10-02T14:52:12.065Z,99723.34
2022-10-02T14:55:10.527Z,99690.88
2022-10-02T14:57:53.398Z,99653.31
2022-10-02T15:00:24.435Z,99608.09
2022-10-02T15:03:22.351Z,99589.25
2022-10-02T15:06:17.663Z,99577.28
2022-10-02T15:08:51.383Z,99576.56
2022-10-02T15:11:26.049Z,99567.94
2022-10-02T15:14:04.414Z,99558.53
2022-10-02T15:17:01.343Z,99537.22
2022-10-02T15:19:37.241Z,99554.38
2022-10-02T15:22:17.696Z,99556.88
2022-10-02T15:24:49.526Z,99570.44
2022-10-02T15:27:27.805Z,99589.16
2022-10-02T15:33:23.420Z,99579.69
2022-10-02T15:36:10.833Z,99583.22
2022-10-02T15:39:09.936Z,99579.69
2022-10-02T15:41:49.455Z,99592.66
2022-10-02T15:44:35.859Z,99548.97
2022-10-02T15:47:16.403Z,99499.59
2022-10-02T15:50:02.043Z,99446.78
2022-10-02T15:52:42.402Z,99385.28
2022-10-02T15:55:25.101Z,99348.72
2022-10-02T15:58:10.332Z,99334.16
2022-10-02T16:01:00.797Z,99310.38
2022-10-02T16:03:45.943Z,99286.50
2022-10-02T16:06:25.458Z,99256.81
2022-10-02T16:09:14.954Z,99202.09
2022-10-02T16:11:58.565Z,99191.09
2022-10-02T16:14:39.061Z,99173.22
2022-10-02T16:17:25.266Z,99135.78
2022-10-02T16:20:23.122Z,99119.59
2022-10-02T16:23:04.010Z,99093.16
2022-10-02T16:25:51.515Z,99055.78
2022-10-02T16:28:36.613Z,99008.16
2022-10-02T16:31:23.825Z,98947.72
2022-10-02T16:34:01.466Z,98896.72
2022-10-02T16:36:38.588Z,98826.09
2022-10-02T16:39:25.945Z,98776.91
2022-10-02T16:45:39.953Z,98661.47
2022-10-02T16:48:14.792Z,98598.78
2022-10-02T16:50:54.165Z,98542.72
2022-10-02T16:53:29.095Z,98515.63
2022-10-02T16:56:10.140Z,98480.06
2022-10-02T16:58:46.254Z,98435.88
2022-10-02T17:01:27.341Z,98383.16
2022-10-02T17:04:23.666Z,98346.81
2022-10-02T17:06:59.145Z,98313.75
2022-10-02T17:09:35.803Z,98282.34
2022-10-02T17:12:14.155Z,98260.47
2022-10-02T17:14:46.768Z,98229.06
2022-10-02T17:17:22.040Z,98226.69
2022-10-02T17:19:55.696Z,98206.25
2022-10-02T17:22:33.505Z,98194.28
2022-10-02T17:25:07.775Z,98185.91
2022-10-02T17:27:49.489Z,98174.06
2022-10-02T17:30:23.907Z,98171.59
2022-10-02T17:33:08.301Z,98178.38
2022-10-02T17:35:48.150Z,98163.84
2022-10-02T17:38:44.502Z,98156.28
2022-10-02T17:41:27.158Z,98144.53
2022-10-02T17:44:07.297Z,98126.69
2022-10-02T17:46:50.939Z,98113.16
2022-10-02T17:49:31.175Z,98102.25
2022-10-02T17:52:30.656Z,98080.97
2022-10-02T17:55:41.814Z,98065.81
2022-10-02T17:58:18.386Z,98041.38
2022-10-02T18:01:05.748Z,98016.03
2022-10-02T18:04:09.635Z,97989.84
2022-10-02T18:07:07.528Z,97965.16
2022-10-02T18:09:50.181Z,97939.09
2022-10-02T18:12:50.187Z,97903.66
2022-10-02T18:15:33.506Z,97871.50
2022-10-02T18:18:22.951Z,97846.16
2022-10-02T18:21:01.400Z,97824.22
2022-10-02T18:24:01.910Z,97795.59
2022-10-02T18:26:44.609Z,97774.44
2022-10-02T18:29:19.037Z,97749.94
2022-10-02T18:32:15.560Z,97719.47
2022-10-02T18:35:15.419Z,97703.50
2022-10-02T18:37:57.541Z,97672.22
2022-10-02T18:40:29.601Z,97646.06
2022-10-02T18:43:23.205Z,97627.56
2022-10-02T18:46:01.929Z,97607.28
2022-10-02T18:48:53.781Z,97592.97
2022-10-02T18:51:37.150Z,97571.09
2022-10-02T18:54:19.667Z,97561.00
2022-10-02T18:57:00.169Z,97536.44
2022-10-02T18:59:39.934Z,97519.66
2022-10-02T19:02:26.307Z,97510.50
2022-10-02T19:05:23.058Z,97485.94
2022-10-02T19:07:57.324Z,97463.09
2022-10-02T19:10:29.962Z,97454.00
2022-10-02T19:13:04.573Z,97446.47
2022-10-02T19:15:34.869Z,97422.75
2022-10-02T19:18:04.578Z,97416.03
2022-10-02T19:20:48.980Z,97402.59
2022-10-02T19:23:23.385Z,97395.81
2022-10-02T19:25:53.354Z,97395.81
2022-10-02T19:28:25.527Z,97426.13
2022-10-02T19:30:58.273Z,97450.69
2022-10-02T19:33:41.310Z,97458.19
2022-10-02T19:36:17.138Z,97462.41
2022-10-02T19:38:51.077Z,97460.78
2022-10-02T19:41:19.975Z,97447.22
2022-10-02T19:43:56.476Z,97434.66
2022-10-02T19:46:38.637Z,97414.31
2022-10-02T19:49:08.513Z,97407.63
2022-10-02T19:51:44.967Z,97386.56
2022-10-02T19:54:19.822Z,97372.28
2022-10-02T19:56:57.266Z,97356.38
2022-10-02T19:59:31.493Z,97338.59
2022-10-02T20:02:05.026Z,97324.31
2022-10-02T20:04:33.352Z,97304.91
2022-10-02T20:07:02.092Z,97301.63
2022-10-02T20:09:37.242Z,97292.38
2022-10-02T20:12:14.436Z,97276.38
2022-10-02T20:14:47.364Z,97261.28
2022-10-02T20:17:17.754Z,97242.78
2022-10-02T20:19:52.943Z,97220.81
2022-10-02T20:22:29.932Z,97208.31
2022-10-02T20:25:03.727Z,97190.56
2022-10-02T20:27:42.248Z,97170.44
2022-10-02T20:30:17.049Z,97146.00
2022-10-02T20:32:50.673Z,97131.78
2022-10-02T20:35:24.588Z,97115.88
2022-10-02T20:37:56.045Z,97094.72
2022-10-02T20:40:28.713Z,97070.31
2022-10-02T20:43:00.191Z,97061.88
2022-10-02T20:45:37.714Z,97044.28
2022-10-02T20:49:07.889Z,97023.31
2022-10-02T20:51:58.678Z,96994.84
2022-10-02T20:54:54.023Z,96975.44
2022-10-02T20:58:04.968Z,96949.41
2022-10-02T21:00:52.884Z,96929.25
2022-10-02T21:03:41.766Z,96918.38
2022-10-02T21:06:27.447Z,96910.78
2022-10-02T21:09:34.450Z,96906.59
2022-10-02T21:12:38.675Z,96899.91
2022-10-02T21:15:29.301Z,96893.97
2022-10-02T21:18:28.037Z,96893.28
2022-10-02T21:21:36.263Z,96879.75
2022-10-02T21:24:33.798Z,96881.50
2022-10-02T21:27:21.794Z,96878.22
2022-10-02T21:30:03.290Z,96873.09
2022-10-02T21:32:41.944Z,96877.31
2022-10-02T21:35:42.286Z,96876.38
2022-10-02T21:38:28.011Z,96889.22
2022-10-02T21:41:30.837Z,96876.50
2022-10-02T21:44:46.794Z,96866.31
2022-10-02T21:47:50.190Z,96863.19
2022-10-02T21:50:36.500Z,96851.28
2022-10-02T21:53:43.761Z,96843.00
2022-10-02T21:56:52.509Z,96831.22
2022-10-02T22:00:02.640Z,96822.00
2022-10-02T22:06:45.299Z,96792.63
2022-10-02T22:09:37.002Z,96786.78
2022-10-02T22:12:19.810Z,96760.66
2022-10-02T22:14:51.071Z,96745.38
2022-10-02T22:17:27.574Z,96745.50
2022-10-02T22:20:13.081Z,96736.28
2022-10-02T22:23:01.452Z,96725.44
2022-10-02T22:25:47.431Z,96712.88
2022-10-02T22:28:37.502Z,96710.50
2022-10-02T22:31:25.079Z,96693.50
2022-10-02T22:34:04.022Z,96686.06
2022-10-02T22:36:52.766Z,96674.38
2022-10-02T22:39:30.121Z,96668.56
2022-10-02T22:42:03.799Z,96650.88
2022-10-02T22:44:36.564Z,96635.81
2022-10-02T22:47:13.116Z,96619.88
2022-10-02T22:49:46.609Z,96606.47
2022-10-02T22:52:25.256Z,96603.09
2022-10-02T22:55:02.255Z,96593.09
2022-10-02T22:57:40.228Z,96578.75
2022-10-02T23:00:17.686Z,96567.13
2022-10-02T23:02:51.163Z,96552.78
2022-10-02T23:05:29.581Z,96546.97
2022-10-02T23:08:04.630Z,96546.25
2022-10-02T23:10:44.086Z,96537.75
2022-10-02T23:13:17.463Z,96533.66
2022-10-02T23:15:54.158Z,96527.84
2022-10-02T23:18:35.787Z,96507.59
2022-10-02T23:21:10.264Z,96509.34
2022-10-02T23:23:50.960Z,96506.91
2022-10-02T23:26:30.812Z,96496.78
2022-10-02T23:29:14.681Z,96491.91
2022-10-02T23:31:51.341Z,96496.78
2022-10-02T23:34:31.602Z,96497.59
2022-10-02T23:37:02.533Z,96498.53
2022-10-02T23:39:40.199Z,96506.81
2022-10-02T23:42:16.600Z,96512.72
2022-10-02T23:44:49.660Z,96516.91
2022-10-02T23:47:27.966Z,96516.91
2022-10-02T23:49:57.335Z,96511.94
2022-10-02T23:52:51.404Z,96512.72
2022-10-02T23:55:45.086Z,96513.56
2022-10-02T23:58:33.491Z,96519.47
